createdAt,value
2022-08-11T00:02:34.056Z,2.20
2022-08-11T00:07:45.162Z,1.77
2022-08-11T00:12:52.365Z,1.80
2022-08-11T00:17:57.969Z,1.73
2022-08-11T00:23:07.231Z,1.50
2022-08-11T00:28:24.914Z,1.97
2022-08-11T00:33:44.215Z,1.70
2022-08-11T00:38:52.652Z,1.93
2022-08-11T00:44:23.400Z,2.17
2022-08-11T00:49:39.480Z,1.83
2022-08-11T00:55:18.344Z,2.00
2022-08-11T01:00:23.118Z,1.90
2022-08-11T01:05:51.094Z,1.50
2022-08-11T01:11:23.547Z,1.93
2022-08-11T01:17:04.183Z,2.03
2022-08-11T01:23:00.002Z,1.63
2022-08-11T01:28:36.277Z,2.10
2022-08-11T01:34:29.674Z,2.13
2022-08-11T01:40:10.639Z,2.60
2022-08-11T01:45:31.334Z,2.07
2022-08-11T01:50:51.760Z,1.70
2022-08-11T01:56:09.451Z,2.07
2022-08-11T02:01:33.367Z,2.00
2022-08-11T02:06:45.198Z,1.83
2022-08-11T02:11:51.301Z,1.90
2022-08-11T02:17:02.200Z,1.83
2022-08-11T02:22:13.317Z,1.80
2022-08-11T02:27:20.822Z,1.60
2022-08-11T02:32:30.775Z,1.50
2022-08-11T02:37:42.715Z,2.33
2022-08-11T02:43:01.778Z,1.90
2022-08-11T02:48:13.343Z,2.27
2022-08-11T02:53:24.600Z,2.13
2022-08-11T02:58:49.142Z,2.13
2022-08-11T03:03:55.583Z,2.00
2022-08-11T03:09:06.836Z,2.03
2022-08-11T03:14:16.069Z,2.03
2022-08-11T03:19:28.870Z,2.20
2022-08-11T03:24:42.660Z,2.20
2022-08-11T03:30:01.927Z,1.83
2022-08-11T03:35:06.536Z,2.10
2022-08-11T03:40:20.524Z,1.70
2022-08-11T03:45:31.193Z,1.80
2022-08-11T03:50:55.470Z,2.00
2022-08-11T03:56:22.950Z,2.00
2022-08-11T04:01:46.302Z,2.13
2022-08-11T04:07:17.617Z,2.00
2022-08-11T04:12:36.000Z,2.00
2022-08-11T04:18:29.949Z,1.90
2022-08-11T04:24:34.406Z,1.53
2022-08-11T04:30:04.913Z,1.77
2022-08-11T04:35:33.121Z,2.03
2022-08-11T04:41:14.267Z,1.83
2022-08-11T04:46:51.343Z,2.17
2022-08-11T04:52:19.729Z,2.20
2022-08-11T04:57:35.502Z,2.20
2022-08-11T05:03:16.483Z,1.80
2022-08-11T05:08:49.450Z,1.80
2022-08-11T05:14:18.706Z,1.48
2022-08-11T05:19:25.228Z,1.40
2022-08-11T05:24:33.601Z,1.58
2022-08-11T05:29:46.380Z,1.63
2022-08-11T05:34:52.382Z,1.70
2022-08-11T05:40:01.367Z,2.03
2022-08-11T05:45:15.673Z,1.50
2022-08-11T05:50:31.381Z,1.90
2022-08-11T05:56:03.171Z,1.80
2022-08-11T06:01:04.067Z,1.83
2022-08-11T06:06:10.642Z,2.03
2022-08-11T06:11:13.905Z,2.20
2022-08-11T06:16:23.126Z,1.70
2022-08-11T06:21:25.473Z,2.17
2022-08-11T06:26:27.823Z,1.92
2022-08-11T06:31:33.926Z,1.83
2022-08-11T06:36:43.223Z,2.42
2022-08-11T06:41:49.702Z,1.92
2022-08-11T06:46:54.004Z,2.30
2022-08-11T06:51:56.740Z,2.83
2022-08-11T06:57:29.462Z,2.38
2022-08-11T07:02:32.184Z,2.25
2022-08-11T07:08:33.044Z,2.10
2022-08-11T07:13:44.164Z,2.67
2022-08-11T07:18:50.500Z,2.35
2022-08-11T07:23:55.873Z,2.42
2022-08-11T07:29:00.323Z,2.00
2022-08-11T07:34:23.265Z,2.80
2022-08-11T07:39:27.586Z,1.90
2022-08-11T07:44:34.761Z,2.08
2022-08-11T07:49:40.402Z,2.10
2022-08-11T07:54:43.597Z,2.13
2022-08-11T08:00:00.030Z,2.10
2022-08-11T08:05:09.103Z,2.30
2022-08-11T08:10:14.161Z,2.25
2022-08-11T08:15:21.228Z,1.67
2022-08-11T08:20:28.168Z,1.67
2022-08-11T08:25:32.220Z,1.92
2022-08-11T08:30:34.992Z,2.30
2022-08-11T08:35:54.497Z,1.90
2022-08-11T08:40:58.282Z,1.60
2022-08-11T08:46:01.390Z,1.52
2022-08-11T08:51:11.920Z,1.80
2022-08-11T08:56:14.608Z,1.75
2022-08-11T09:01:23.085Z,1.67
2022-08-11T09:06:30.003Z,1.67
2022-08-11T09:11:32.341Z,1.73
2022-08-11T09:16:35.193Z,1.88
2022-08-11T09:21:48.546Z,1.70
2022-08-11T09:26:52.865Z,1.95
2022-08-11T09:31:56.377Z,3.42
2022-08-11T09:37:00.530Z,1.60
2022-08-11T09:42:04.629Z,2.20
2022-08-11T09:47:07.425Z,1.70
2022-08-11T09:52:11.853Z,1.95
2022-08-11T09:57:14.207Z,1.50
2022-08-11T10:02:16.949Z,1.48
2022-08-11T10:07:21.136Z,1.75
2022-08-11T10:12:25.407Z,1.58
2022-08-11T10:17:30.905Z,1.50
2022-08-11T10:22:36.063Z,1.50
2022-08-11T10:28:30.831Z,2.15
2022-08-11T10:33:36.946Z,1.83
2022-08-11T10:38:42.565Z,1.88
2022-08-11T10:44:02.517Z,1.40
2022-08-11T10:49:06.497Z,1.85
2022-08-11T10:54:12.389Z,2.03
2022-08-11T10:59:16.115Z,1.63
2022-08-11T11:04:21.156Z,1.83
2022-08-11T11:09:28.454Z,1.70
2022-08-11T11:14:32.223Z,1.42
2022-08-11T11:19:39.674Z,2.50
2022-08-11T11:24:56.335Z,1.80
2022-08-11T11:30:05.158Z,1.52
2022-08-11T11:35:36.136Z,1.95
2022-08-11T11:40:40.861Z,1.70
2022-08-11T11:45:43.169Z,1.70
2022-08-11T11:50:45.585Z,1.42
2022-08-11T11:55:48.872Z,1.90
2022-08-11T12:00:52.664Z,1.88
2022-08-11T12:05:55.004Z,1.52
2022-08-11T12:11:02.720Z,1.65
2022-08-11T12:16:33.091Z,1.58
2022-08-11T12:21:29.634Z,1.60
2022-08-11T12:26:33.882Z,1.50
2022-08-11T12:31:37.125Z,1.70
2022-08-11T12:36:41.505Z,1.52
2022-08-11T12:41:45.897Z,1.80
2022-08-11T12:46:49.746Z,1.65
2022-08-11T12:52:06.773Z,1.95
2022-08-11T12:57:45.790Z,1.63
2022-08-11T13:02:49.214Z,1.70
2022-08-11T13:07:52.913Z,1.65
2022-08-11T13:12:56.338Z,1.60
2022-08-11T13:18:00.222Z,1.58
2022-08-11T13:23:03.700Z,1.77
2022-08-11T13:28:07.559Z,1.70
2022-08-11T13:33:10.225Z,1.80
2022-08-11T13:38:19.081Z,1.80
2022-08-11T13:43:24.731Z,1.92
2022-08-11T13:48:26.557Z,1.75
2022-08-11T13:53:31.271Z,1.83
2022-08-11T13:58:40.620Z,2.33
2022-08-11T14:04:31.486Z,2.00
2022-08-11T14:09:10.392Z,1.90
2022-08-11T14:14:21.385Z,1.70
2022-08-11T14:19:26.486Z,1.70
2022-08-11T14:24:29.298Z,1.42
2022-08-11T14:29:33.639Z,1.42
2022-08-11T14:34:51.231Z,1.85
2022-08-11T14:40:02.855Z,1.67
2022-08-11T14:45:12.096Z,1.35
2022-08-11T14:50:16.870Z,1.50
2022-08-11T14:55:20.653Z,1.48
2022-08-11T15:00:24.912Z,1.33
2022-08-11T15:05:27.926Z,1.50
2022-08-11T15:10:30.202Z,1.45
2022-08-11T15:15:34.686Z,1.30
2022-08-11T15:20:37.075Z,1.48
2022-08-11T15:25:42.372Z,1.60
2022-08-11T15:30:47.778Z,1.40
2022-08-11T15:35:51.845Z,1.52
2022-08-11T15:40:57.470Z,1.33
2022-08-11T15:46:04.220Z,1.85
2022-08-11T15:51:10.081Z,1.48
2022-08-11T15:56:12.632Z,1.35
2022-08-11T16:01:18.945Z,1.27
2022-08-11T16:06:22.500Z,1.27
2022-08-11T16:11:27.415Z,1.30
2022-08-11T16:16:31.389Z,1.10
2022-08-11T16:21:36.514Z,0.82
2022-08-11T16:27:10.683Z,1.42
2022-08-11T16:32:08.279Z,0.98
2022-08-11T16:37:11.047Z,1.25
2022-08-11T16:43:04.348Z,1.13
2022-08-11T16:48:02.784Z,1.00
2022-08-11T16:52:59.834Z,0.98
2022-08-11T16:58:02.484Z,0.82
2022-08-11T17:03:07.003Z,1.02
2022-08-11T17:08:10.529Z,1.13
2022-08-11T17:13:16.046Z,1.00
2022-08-11T17:18:22.441Z,1.25
2022-08-11T17:23:24.642Z,0.80
2022-08-11T17:28:27.372Z,0.90
2022-08-11T17:33:31.891Z,1.13
2022-08-11T17:38:36.049Z,0.90
2022-08-11T17:43:38.813Z,0.90
2022-08-11T17:48:47.649Z,0.95
2022-08-11T17:54:02.175Z,0.80
2022-08-11T17:59:15.072Z,1.10
2022-08-11T18:04:20.938Z,0.90
2022-08-11T18:09:23.918Z,0.80
2022-08-11T18:14:26.952Z,0.80
2022-08-11T18:19:31.061Z,1.00
2022-08-11T18:24:39.719Z,0.90
2022-08-11T18:29:43.967Z,0.90
2022-08-11T18:34:50.394Z,0.88
2022-08-11T18:39:58.849Z,0.90
2022-08-11T18:45:04.767Z,0.93
2022-08-11T18:50:13.872Z,0.80
2022-08-11T18:55:20.385Z,0.90
2022-08-11T19:00:23.351Z,0.70
2022-08-11T19:06:35.519Z,0.93
2022-08-11T19:10:53.388Z,0.95
2022-08-11T19:15:56.203Z,0.90
2022-08-11T19:21:00.746Z,0.90
2022-08-11T19:26:04.092Z,0.82
2022-08-11T19:31:08.715Z,0.95
2022-08-11T19:36:12.899Z,1.00
2022-08-11T19:41:15.891Z,1.17
2022-08-11T19:46:23.365Z,1.15
2022-08-11T19:51:28.740Z,1.23
2022-08-11T19:56:31.797Z,0.80
2022-08-11T20:01:33.613Z,0.98
2022-08-11T20:06:38.591Z,1.20
2022-08-11T20:11:43.210Z,1.33
2022-08-11T20:16:46.984Z,1.10
2022-08-11T20:21:50.704Z,1.10
2022-08-11T20:26:53.842Z,1.50
2022-08-11T20:31:56.765Z,1.40
2022-08-11T20:37:01.895Z,1.20
2022-08-11T20:42:05.177Z,1.10
2022-08-11T20:47:13.194Z,0.90
2022-08-11T20:52:18.828Z,1.20
2022-08-11T20:57:58.593Z,1.23
2022-08-11T21:02:50.093Z,1.00
2022-08-11T21:07:59.058Z,1.40
2022-08-11T21:13:25.573Z,1.00
2022-08-11T21:18:28.568Z,1.17
2022-08-11T21:23:34.495Z,1.10
2022-08-11T21:28:39.561Z,1.17
2022-08-11T21:33:42.301Z,1.50
2022-08-11T21:38:48.611Z,1.10
2022-08-11T21:43:52.663Z,1.47
2022-08-11T21:48:55.361Z,1.50
2022-08-11T21:54:00.854Z,1.60
2022-08-11T21:59:07.251Z,1.40
2022-08-11T22:04:11.118Z,1.83
2022-08-11T22:09:14.639Z,1.47
2022-08-11T22:14:16.638Z,1.40
2022-08-11T22:19:19.771Z,1.23
2022-08-11T22:24:30.078Z,1.60
2022-08-11T22:29:50.580Z,1.47
2022-08-11T22:34:54.677Z,1.70
2022-08-11T22:40:02.429Z,1.70
2022-08-11T22:45:05.975Z,1.20
2022-08-11T22:50:10.384Z,1.53
2022-08-11T22:55:15.188Z,1.47
2022-08-11T23:00:17.471Z,1.43
2022-08-11T23:05:19.929Z,1.57
2022-08-11T23:10:24.062Z,1.23
2022-08-11T23:15:26.676Z,1.53
2022-08-11T23:20:44.926Z,1.40
2022-08-11T23:25:56.098Z,1.30
2022-08-11T23:30:59.975Z,1.13
2022-08-11T23:36:05.292Z,1.70
2022-08-11T23:41:09.949Z,1.50
2022-08-11T23:46:12.123Z,1.40
2022-08-11T23:51:17.371Z,1.40
2022-08-11T23:56:21.849Z,1.47
